createdAt,value
2022-08-26T00:02:12.692Z,10.35
2022-08-26T00:04:40.782Z,10.60
2022-08-26T00:07:09.078Z,12.27
2022-08-26T00:09:40.197Z,14.50
2022-08-26T00:14:37.517Z,13.20
2022-08-26T00:17:08.598Z,13.40
2022-08-26T00:19:36.593Z,11.80
2022-08-26T00:22:05.073Z,12.95
2022-08-26T00:27:00.906Z,11.13
2022-08-26T00:29:29.115Z,13.45
2022-08-26T00:31:59.843Z,12.20
2022-08-26T00:36:57.554Z,12.90
2022-08-26T00:39:25.426Z,12.48
2022-08-26T00:41:53.548Z,13.88
2022-08-26T00:44:21.624Z,12.20
2022-08-26T00:46:52.202Z,15.45
2022-08-26T00:49:35.599Z,13.27
2022-08-26T00:52:09.725Z,11.60
2022-08-26T00:54:46.738Z,13.95
2022-08-26T00:59:52.664Z,12.95
2022-08-26T01:02:21.647Z,15.85
2022-08-26T01:04:54.239Z,12.13
2022-08-26T01:07:27.549Z,12.50
2022-08-26T01:09:59.890Z,12.20
2022-08-26T01:12:30.265Z,14.48
2022-08-26T01:14:58.305Z,13.38
2022-08-26T01:17:26.660Z,13.65
2022-08-26T01:20:02.524Z,12.52
2022-08-26T01:22:40.906Z,16.23
2022-08-26T01:25:09.355Z,12.55
2022-08-26T01:30:06.754Z,14.60
2022-08-26T01:32:36.273Z,14.15
2022-08-26T01:37:39.007Z,15.27
2022-08-26T01:40:17.777Z,14.05
2022-08-26T01:42:46.754Z,16.35
2022-08-26T01:45:18.427Z,16.83
2022-08-26T01:47:49.728Z,15.10
2022-08-26T01:50:30.200Z,17.60
2022-08-26T01:53:01.632Z,15.95
2022-08-26T01:55:33.288Z,14.70
2022-08-26T01:58:05.549Z,15.68
2022-08-26T02:00:34.963Z,13.30
2022-08-26T02:03:17.802Z,15.30
2022-08-26T02:05:48.924Z,17.75
2022-08-26T02:08:25.321Z,14.02
2022-08-26T02:10:55.253Z,18.13
2022-08-26T02:13:25.789Z,15.85
2022-08-26T02:15:55.299Z,15.30
2022-08-26T02:18:23.704Z,16.77
2022-08-26T02:23:24.424Z,13.45
2022-08-26T02:28:34.264Z,18.23
2022-08-26T02:31:02.579Z,15.05
2022-08-26T02:35:59.231Z,15.63
2022-08-26T02:38:27.787Z,17.88
2022-08-26T02:40:57.004Z,15.10
2022-08-26T02:43:31.282Z,15.32
2022-08-26T02:48:31.230Z,16.63
2022-08-26T02:51:01.794Z,17.98
2022-08-26T02:53:31.830Z,14.50
2022-08-26T02:56:05.211Z,15.05
2022-08-26T03:01:01.701Z,14.45
2022-08-26T03:03:33.060Z,12.90
2022-08-26T03:06:01.047Z,17.70
2022-08-26T03:08:28.881Z,18.30
2022-08-26T03:10:56.699Z,14.30
2022-08-26T03:15:53.820Z,17.50
2022-08-26T03:20:49.602Z,16.42
2022-08-26T03:23:17.450Z,18.25
2022-08-26T03:25:50.351Z,17.00
2022-08-26T03:28:19.291Z,12.98
2022-08-26T03:30:48.102Z,13.32
2022-08-26T03:33:16.996Z,14.10
2022-08-26T03:38:15.856Z,18.35
2022-08-26T03:40:44.603Z,13.85
2022-08-26T03:43:15.971Z,18.15
2022-08-26T03:45:44.271Z,17.58
2022-08-26T03:48:15.183Z,17.23
2022-08-26T03:50:43.250Z,22.30
2022-08-26T03:53:13.168Z,32.40
2022-08-26T03:55:42.042Z,18.20
2022-08-26T03:58:11.593Z,16.30
2022-08-26T04:00:39.552Z,13.27
2022-08-26T04:03:09.990Z,17.88
2022-08-26T04:05:39.544Z,16.63
2022-08-26T04:08:07.868Z,17.33
2022-08-26T04:10:38.995Z,14.05
2022-08-26T04:13:07.246Z,15.40
2022-08-26T04:15:35.306Z,16.20
2022-08-26T04:18:03.108Z,15.35
2022-08-26T04:20:31.329Z,18.48
2022-08-26T04:23:00.536Z,17.00
2022-08-26T04:25:28.425Z,14.75
2022-08-26T04:27:56.255Z,15.88
2022-08-26T04:30:25.511Z,17.48
2022-08-26T04:32:53.433Z,20.10
2022-08-26T04:35:25.650Z,20.20
2022-08-26T04:37:54.188Z,18.67
2022-08-26T04:40:24.027Z,20.33
2022-08-26T04:42:53.672Z,14.80
2022-08-26T04:47:54.600Z,20.35
2022-08-26T04:50:23.680Z,20.15
2022-08-26T04:52:53.046Z,17.52
2022-08-26T04:55:20.868Z,17.25
2022-08-26T05:00:23.112Z,20.70
2022-08-26T05:02:51.522Z,23.98
2022-08-26T05:05:19.439Z,18.70
2022-08-26T05:10:16.494Z,21.50
2022-08-26T05:12:46.464Z,19.63
2022-08-26T05:17:43.752Z,27.65
2022-08-26T05:22:40.559Z,20.25
2022-08-26T05:25:09.173Z,19.17
2022-08-26T05:27:37.041Z,19.77
2022-08-26T05:30:06.562Z,20.10
2022-08-26T05:32:35.891Z,23.58
2022-08-26T05:35:04.098Z,19.15
2022-08-26T05:37:38.620Z,20.63
2022-08-26T05:40:07.359Z,20.25
2022-08-26T05:42:36.432Z,25.70
2022-08-26T05:47:32.627Z,27.60
2022-08-26T05:50:05.462Z,36.47
2022-08-26T05:52:33.563Z,18.88
2022-08-26T05:55:01.765Z,20.25
2022-08-26T05:57:30.205Z,16.17
2022-08-26T05:59:58.484Z,17.55
2022-08-26T06:02:26.442Z,19.50
2022-08-26T06:04:54.321Z,16.65
2022-08-26T06:10:32.509Z,17.42
2022-08-26T06:13:04.601Z,15.65
2022-08-26T06:18:15.593Z,17.38
2022-08-26T06:20:57.164Z,16.80
2022-08-26T06:26:16.429Z,19.88
2022-08-26T06:28:45.431Z,20.92
2022-08-26T06:31:14.135Z,13.73
2022-08-26T06:33:42.168Z,16.63
2022-08-26T06:36:10.239Z,17.33
2022-08-26T06:38:39.643Z,20.73
2022-08-26T06:41:12.020Z,19.27
2022-08-26T06:43:39.884Z,15.32
2022-08-26T06:46:11.687Z,19.48
2022-08-26T06:48:40.192Z,16.67
2022-08-26T06:51:11.254Z,15.65
2022-08-26T06:53:41.914Z,16.63
2022-08-26T06:56:11.972Z,18.60
2022-08-26T06:58:40.866Z,14.75
2022-08-26T07:01:16.927Z,15.65
2022-08-26T07:03:46.715Z,16.27
2022-08-26T07:06:15.062Z,20.33
2022-08-26T07:08:45.937Z,15.73
2022-08-26T07:11:15.376Z,15.07
2022-08-26T07:13:43.368Z,16.88
2022-08-26T07:16:14.584Z,21.77
2022-08-26T07:18:44.797Z,20.80
2022-08-26T07:23:43.371Z,17.70
2022-08-26T07:26:16.289Z,19.77
2022-08-26T07:28:44.518Z,18.73
2022-08-26T07:31:14.775Z,18.27
2022-08-26T07:33:43.738Z,17.35
2022-08-26T07:36:13.134Z,19.02
2022-08-26T07:38:42.449Z,24.85
2022-08-26T07:41:13.186Z,18.98
2022-08-26T07:43:41.630Z,15.82
2022-08-26T07:46:13.270Z,21.05
2022-08-26T07:48:45.930Z,19.73
2022-08-26T07:51:14.432Z,26.48
2022-08-26T07:53:42.460Z,20.30
2022-08-26T07:56:10.321Z,15.60
2022-08-26T07:58:40.752Z,17.65
2022-08-26T08:01:10.735Z,16.42
2022-08-26T08:03:38.970Z,19.13
2022-08-26T08:06:07.339Z,17.70
2022-08-26T08:08:37.737Z,18.17
2022-08-26T08:11:05.933Z,16.40
2022-08-26T08:13:33.790Z,19.80
2022-08-26T08:16:03.238Z,19.02
2022-08-26T08:18:31.119Z,15.93
2022-08-26T08:21:21.448Z,16.95
2022-08-26T08:23:49.716Z,18.85
2022-08-26T08:26:17.542Z,14.38
2022-08-26T08:28:47.986Z,16.92
2022-08-26T08:31:52.121Z,15.48
2022-08-26T08:34:10.123Z,16.00
2022-08-26T08:36:37.905Z,19.98
2022-08-26T08:39:06.622Z,14.00
2022-08-26T08:41:53.309Z,19.40
2022-08-26T08:44:31.221Z,15.48
2022-08-26T08:47:06.111Z,19.10
2022-08-26T08:49:35.372Z,23.40
2022-08-26T08:52:11.406Z,14.85
2022-08-26T08:57:13.067Z,14.15
2022-08-26T08:59:53.347Z,15.10
2022-08-26T09:02:31.694Z,13.90
2022-08-26T09:05:07.762Z,15.63
2022-08-26T12:49:39.561Z,13.38
2022-08-26T12:54:56.965Z,13.20
2022-08-26T12:57:29.677Z,14.10
2022-08-26T13:00:28.391Z,10.55
2022-08-26T13:05:27.776Z,10.57
2022-08-26T13:08:16.365Z,11.60
2022-08-26T13:10:46.776Z,9.40
2022-08-26T13:13:15.962Z,17.45
2022-08-26T13:18:12.301Z,18.75
2022-08-26T13:20:44.089Z,25.30
2022-08-26T13:28:08.165Z,19.63
2022-08-26T13:30:37.645Z,18.00
2022-08-26T13:33:06.067Z,30.45
2022-08-26T13:35:34.316Z,18.90
2022-08-26T13:38:02.159Z,23.13
2022-08-26T13:40:34.381Z,20.70
2022-08-26T13:43:02.498Z,19.67
2022-08-26T13:45:30.434Z,20.02
2022-08-26T13:48:00.451Z,16.92
2022-08-26T13:50:28.308Z,22.45
2022-08-26T13:52:56.131Z,17.55
2022-08-26T13:57:52.270Z,13.25
2022-08-26T14:00:20.496Z,19.80
2022-08-26T14:02:48.486Z,16.05
2022-08-26T14:05:17.945Z,14.07
2022-08-26T14:07:45.997Z,14.85
2022-08-26T14:10:13.916Z,12.15
2022-08-26T14:12:42.398Z,12.35
2022-08-26T14:15:11.258Z,14.73
2022-08-26T14:17:40.194Z,11.43
2022-08-26T14:20:12.997Z,14.40
2022-08-26T14:23:03.606Z,12.70
2022-08-26T14:25:34.580Z,17.08
2022-08-26T14:28:02.636Z,19.13
2022-08-26T14:30:30.504Z,14.57
2022-08-26T14:33:00.358Z,10.75
2022-08-26T14:35:29.767Z,19.15
2022-08-26T14:37:59.145Z,11.95
2022-08-26T14:40:31.455Z,14.48
2022-08-26T14:43:02.565Z,11.35
2022-08-26T14:45:43.958Z,14.27
2022-08-26T14:48:12.028Z,11.80
2022-08-26T14:50:40.839Z,13.93
2022-08-26T14:53:27.821Z,19.33
2022-08-26T14:55:55.708Z,14.93
2022-08-26T14:58:23.649Z,12.95
2022-08-26T15:00:51.736Z,9.18
2022-08-26T15:03:19.601Z,12.73
2022-08-26T15:05:48.334Z,8.35
2022-08-26T15:08:18.476Z,10.50
2022-08-26T15:10:46.311Z,14.55
2022-08-26T15:13:14.136Z,10.20
2022-08-26T15:18:10.445Z,13.93
2022-08-26T15:20:38.630Z,10.02
2022-08-26T15:23:07.616Z,11.32
2022-08-26T15:28:06.351Z,16.27
2022-08-26T15:33:02.887Z,11.13
2022-08-26T15:45:46.038Z,9.45
2022-08-26T15:53:19.629Z,11.63
2022-08-26T16:03:13.906Z,7.97
2022-08-26T16:05:44.021Z,8.20
2022-08-26T16:08:12.950Z,8.38
2022-08-26T16:10:47.894Z,17.48
2022-08-26T16:13:21.343Z,10.60
2022-08-26T16:18:20.355Z,13.75
2022-08-26T16:21:08.818Z,12.00
2022-08-26T16:23:44.929Z,11.65
2022-08-26T16:26:15.623Z,12.60
2022-08-26T16:28:45.051Z,11.32
2022-08-26T16:31:13.174Z,8.98
2022-08-26T16:33:41.180Z,10.45
2022-08-26T16:36:10.015Z,7.93
2022-08-26T16:38:39.691Z,8.32
2022-08-26T16:43:37.428Z,11.77
2022-08-26T16:46:08.597Z,12.85
2022-08-26T16:48:36.593Z,10.52
2022-08-26T16:51:04.660Z,13.40
2022-08-26T16:53:33.722Z,12.13
2022-08-26T16:56:01.612Z,11.88
2022-08-26T16:58:29.573Z,7.75
2022-08-26T17:00:57.943Z,15.20
2022-08-26T17:03:27.582Z,12.32
2022-08-26T17:05:55.796Z,12.40
2022-08-26T17:08:27.727Z,13.57
2022-08-26T17:10:56.751Z,11.32
2022-08-26T17:13:35.417Z,13.50
2022-08-26T17:16:06.332Z,12.15
2022-08-26T17:18:36.014Z,9.70
2022-08-26T17:21:06.690Z,10.43
2022-08-26T17:23:35.039Z,13.27
2022-08-26T17:28:30.996Z,12.57
2022-08-26T17:30:59.391Z,12.70
2022-08-26T17:33:28.139Z,7.38
2022-08-26T17:35:57.615Z,11.25
2022-08-26T17:38:27.508Z,10.40
2022-08-26T17:40:55.503Z,13.15
2022-08-26T17:43:23.295Z,9.63
2022-08-26T17:48:19.143Z,12.32
2022-08-26T17:50:49.589Z,16.85
2022-08-26T17:55:48.046Z,14.63
2022-08-26T17:58:16.334Z,10.77
2022-08-26T18:00:45.217Z,9.73
2022-08-26T18:03:13.149Z,13.48
2022-08-26T18:05:41.337Z,9.07
2022-08-26T18:10:38.815Z,10.18
2022-08-26T18:13:06.676Z,12.55
2022-08-26T18:15:35.008Z,13.02
2022-08-26T18:18:02.944Z,11.57
2022-08-26T18:20:30.955Z,16.25
2022-08-26T18:22:58.865Z,12.02
2022-08-26T18:25:27.128Z,15.98
2022-08-26T18:27:56.324Z,23.50
2022-08-26T18:30:24.734Z,16.08
2022-08-26T18:32:53.306Z,15.27
2022-08-26T18:35:22.028Z,8.68
2022-08-26T18:37:49.955Z,12.93
2022-08-26T18:40:17.865Z,8.82
2022-08-26T18:42:45.743Z,7.28
2022-08-26T18:45:18.815Z,7.45
2022-08-26T18:47:46.628Z,7.30
2022-08-26T18:50:15.752Z,10.88
2022-08-26T18:52:43.773Z,6.70
2022-08-26T18:55:11.948Z,5.72
2022-08-26T18:57:39.797Z,10.80
2022-08-26T19:00:09.878Z,6.63
2022-08-26T19:02:39.229Z,8.38
2022-08-26T19:05:08.407Z,7.10
2022-08-26T19:07:39.607Z,7.53
2022-08-26T19:10:08.519Z,4.45
2022-08-26T19:12:36.416Z,7.57
2022-08-26T19:15:05.235Z,8.35
2022-08-26T19:20:03.169Z,8.88
2022-08-26T19:22:31.041Z,6.25
2022-08-26T19:24:58.898Z,7.38
2022-08-26T19:32:25.372Z,9.55
2022-08-26T19:34:53.269Z,7.50
2022-08-26T19:37:23.130Z,9.02
2022-08-26T19:39:51.411Z,7.88
2022-08-26T19:42:19.321Z,5.45
2022-08-26T19:45:04.802Z,6.95
2022-08-26T19:47:32.791Z,10.38
2022-08-26T19:50:01.043Z,5.93
2022-08-26T19:52:31.287Z,10.07
2022-08-26T19:59:55.343Z,9.40
2022-08-26T20:02:23.254Z,13.75
2022-08-26T20:12:18.714Z,8.00
2022-08-26T20:14:46.564Z,11.27
2022-08-26T20:17:16.131Z,8.02
2022-08-26T20:20:01.587Z,8.23
2022-08-26T20:22:29.551Z,8.95
2022-08-26T20:24:58.997Z,12.45
2022-08-26T20:27:37.883Z,12.88
2022-08-26T20:30:08.419Z,13.00
2022-08-26T20:35:05.953Z,10.75
2022-08-26T20:37:34.608Z,12.35
2022-08-26T20:40:04.956Z,11.20
2022-08-26T20:45:00.920Z,12.98
2022-08-26T20:47:29.206Z,15.23
2022-08-26T20:49:57.215Z,18.67
2022-08-26T20:52:25.116Z,13.13
2022-08-26T20:54:52.946Z,15.07
2022-08-26T20:59:51.450Z,14.27
2022-08-26T21:04:47.455Z,18.60
2022-08-26T21:07:15.396Z,15.10
2022-08-26T21:09:45.605Z,17.70
2022-08-26T21:12:13.623Z,17.35
2022-08-26T21:14:46.639Z,16.15
2022-08-26T21:19:44.962Z,16.40
2022-08-26T21:27:08.951Z,15.70
2022-08-26T21:29:37.721Z,11.68
2022-08-26T21:34:35.614Z,18.30
2022-08-26T21:39:31.453Z,10.60
2022-08-26T21:41:59.305Z,14.80
2022-08-26T21:46:56.166Z,13.40
2022-08-26T21:49:26.099Z,16.15
2022-08-26T21:51:55.233Z,14.45
2022-08-26T21:54:23.670Z,12.80
2022-08-26T21:56:51.692Z,11.63
2022-08-26T21:59:19.896Z,11.77
2022-08-26T22:01:48.517Z,14.80
2022-08-26T22:04:17.198Z,13.00
2022-08-26T22:06:48.942Z,15.27
2022-08-26T22:09:18.900Z,11.75
2022-08-26T22:11:47.475Z,11.80
2022-08-26T22:14:16.670Z,13.45
2022-08-26T22:16:50.603Z,13.98
2022-08-26T22:24:19.711Z,13.73
2022-08-26T22:26:48.350Z,15.68
2022-08-26T22:29:16.494Z,11.18
2022-08-26T22:31:44.418Z,13.25
2022-08-26T22:34:15.690Z,12.13
2022-08-26T22:36:46.191Z,9.18
2022-08-26T22:39:17.265Z,10.63
2022-08-26T22:41:46.285Z,10.85
2022-08-26T22:44:14.096Z,10.10
2022-08-26T22:46:43.103Z,9.30
2022-08-26T22:51:44.179Z,9.82
2022-08-26T22:56:42.279Z,7.70
2022-08-26T22:59:10.167Z,8.07
2022-08-26T23:01:39.542Z,11.75
2022-08-26T23:06:38.226Z,9.45
2022-08-26T23:11:35.548Z,7.75
2022-08-26T23:14:06.653Z,15.40
2022-08-26T23:16:39.383Z,6.20
2022-08-26T23:21:36.156Z,6.10
2022-08-26T23:24:04.539Z,9.35
2022-08-26T23:26:32.777Z,11.32
2022-08-26T23:31:30.365Z,9.27
2022-08-26T23:39:12.891Z,8.48
2022-08-26T23:41:40.746Z,13.25
2022-08-26T23:44:08.615Z,11.07
2022-08-26T23:46:37.817Z,10.70
2022-08-26T23:49:06.067Z,18.25
